Time;durP1;ratioP1;P1;durP2;ratioP2;P2;SDS_P1;SDS_P2;PMS_P1;PMS_P2;Temp;Humidity;BMP_temperature;BMP_pressure;BME280_temperature;BME280_humidity;BME280_pressure;Samples;Min_cycle;Max_cycle;Signal;HPM_P1;HPM_P2
2021/07/29 00:00:55;;;;;;;14.00;5.40;;;;;;;26.25;51.21;100496.91;5007931;28;20054;-69
2021/07/29 00:03:22;;;;;;;15.52;5.30;;;;;;;26.05;51.88;100486.22;5007697;28;20046;-69
2021/07/29 00:05:50;;;;;;;14.73;5.72;;;;;;;26.04;51.51;100487.16;5007005;28;20033;-69
2021/07/29 00:08:19;;;;;;;13.40;5.18;;;;;;;26.04;51.36;100484.47;5007204;28;20084;-69
2021/07/29 00:10:47;;;;;;;12.18;5.65;;;;;;;26.19;51.17;100483.63;5007161;28;20443;-70
2021/07/29 00:13:14;;;;;;;10.68;4.75;;;;;;;26.24;51.01;100476.19;5006493;28;20050;-70
2021/07/29 00:15:43;;;;;;;11.63;5.13;;;;;;;26.25;50.73;100472.53;5007810;28;20061;-69
2021/07/29 00:20:57;;;;;;;11.85;5.25;;;;;;;26.32;50.86;100475.78;5007009;28;21093;-70
2021/07/29 00:23:25;;;;;;;9.00;5.18;;;;;;;26.31;50.75;100474.91;5006670;28;20046;-70
2021/07/29 00:25:52;;;;;;;14.07;5.03;;;;;;;26.25;51.16;100471.66;5007422;28;20053;-69
2021/07/29 00:28:20;;;;;;;13.65;5.50;;;;;;;26.17;51.14;100475.59;5007054;28;20046;-70
2021/07/29 00:30:48;;;;;;;11.30;4.88;;;;;;;26.11;51.24;100469.66;5007124;28;20045;-69
2021/07/29 00:33:17;;;;;;;11.90;5.53;;;;;;;26.12;51.27;100469.53;5006557;28;20049;-69
2021/07/29 00:35:44;;;;;;;10.30;4.93;;;;;;;26.03;51.11;100469.16;5007184;28;20049;-69
2021/07/29 00:38:12;;;;;;;11.93;4.68;;;;;;;26.05;51.50;100462.72;5006463;28;20553;-69
2021/07/29 00:40:39;;;;;;;9.98;4.93;;;;;;;26.06;50.86;100459.03;5006841;28;20049;-68
2021/07/29 00:43:09;;;;;;;10.98;4.70;;;;;;;26.04;51.06;100454.69;5010591;28;21520;-70
2021/07/29 00:45:36;;;;;;;16.48;5.38;;;;;;;26.06;50.90;100456.34;5010921;28;20502;-70
2021/07/29 00:48:04;;;;;;;9.75;4.82;;;;;;;26.03;51.06;100456.53;5010008;28;20046;-69
2021/07/29 00:50:34;;;;;;;14.98;5.22;;;;;;;25.97;51.36;100459.56;5009970;28;20049;-70
2021/07/29 00:53:02;;;;;;;12.98;5.32;;;;;;;25.89;51.35;100459.06;5010284;28;20049;-70
2021/07/29 00:55:29;;;;;;;12.15;5.47;;;;;;;25.93;51.23;100454.41;5009874;28;20061;-70
2021/07/29 00:57:57;;;;;;;11.63;4.72;;;;;;;25.94;51.18;100459.69;5009706;28;20046;-70
2021/07/29 01:00:24;;;;;;;12.52;4.88;;;;;;;25.93;51.16;100459.81;5010059;28;20060;-69
2021/07/29 01:02:54;;;;;;;10.70;4.47;;;;;;;25.93;51.43;100457.94;5009061;28;20041;-70
2021/07/29 01:05:22;;;;;;;11.10;4.88;;;;;;;26.00;50.71;100453.09;5010422;28;20050;-70
2021/07/29 01:07:52;;;;;;;9.57;4.78;;;;;;;25.90;51.23;100450.00;5010198;28;20514;-70
2021/07/29 01:10:19;;;;;;;12.95;5.07;;;;;;;25.78;51.29;100454.25;5016708;28;20046;-70
2021/07/29 01:12:47;;;;;;;10.02;5.32;;;;;;;25.77;51.23;100448.91;5013005;28;20096;-69
2021/07/29 01:15:14;;;;;;;11.70;4.90;;;;;;;25.74;51.40;100446.34;5029499;28;20033;-70
2021/07/29 01:17:41;;;;;;;8.18;4.57;;;;;;;25.74;51.41;100451.75;5027940;28;20053;-69
2021/07/29 01:20:11;;;;;;;10.18;4.45;;;;;;;25.84;50.72;100439.50;5013812;28;20038;-68
2021/07/29 01:22:39;;;;;;;13.43;4.63;;;;;;;25.89;50.52;100439.25;5013593;28;20537;-69
2021/07/29 01:25:10;;;;;;;12.32;5.00;;;;;;;25.92;50.42;100433.69;5028069;28;20045;-69
2021/07/29 01:27:38;;;;;;;9.93;4.55;;;;;;;25.77;50.72;100430.84;5032351;28;20037;-69
2021/07/29 01:30:06;;;;;;;12.93;4.88;;;;;;;25.70;51.11;100432.13;5021733;28;20610;-70
2021/07/29 01:32:34;;;;;;;10.25;4.22;;;;;;;25.75;50.74;100426.47;5030899;28;20129;-69
2021/07/29 01:35:01;;;;;;;9.20;4.22;;;;;;;25.85;50.42;100426.88;5032334;28;20037;-69
2021/07/29 01:37:28;;;;;;;12.38;4.72;;;;;;;25.83;50.40;100426.94;5023884;28;20042;-70
2021/07/29 01:39:57;;;;;;;8.07;4.63;;;;;;;25.72;50.74;100424.81;5021020;28;20055;-70
2021/07/29 01:42:24;;;;;;;9.27;4.53;;;;;;;25.75;50.48;100431.88;5018880;28;20050;-70
2021/07/29 01:44:51;;;;;;;9.23;4.38;;;;;;;25.80;50.68;100429.78;5012033;28;20106;-69
2021/07/29 01:47:19;;;;;;;7.93;4.05;;;;;;;25.88;50.12;100430.25;5012359;28;20053;-69
2021/07/29 01:49:46;;;;;;;13.20;4.20;;;;;;;25.91;49.83;100422.00;5017994;28;20126;-69
2021/07/29 01:52:13;;;;;;;10.73;4.35;;;;;;;25.90;49.89;100425.66;5024830;28;20041;-69
2021/07/29 01:54:41;;;;;;;12.63;4.32;;;;;;;25.85;50.26;100416.91;5027752;28;20041;-68
2021/07/29 01:57:10;;;;;;;11.57;4.10;;;;;;;25.78;50.44;100412.78;5029070;28;20049;-70
2021/07/29 01:59:37;;;;;;;10.43;4.10;;;;;;;25.74;50.33;100413.88;5025885;28;20045;-70
2021/07/29 02:02:05;;;;;;;13.43;4.25;;;;;;;25.72;50.63;100422.09;5010648;28;20042;-69
2021/07/29 02:04:34;;;;;;;8.38;4.05;;;;;;;25.75;50.19;100421.06;5010499;28;20065;-70
2021/07/29 02:07:02;;;;;;;9.13;4.50;;;;;;;25.75;50.35;100426.47;5021748;28;20042;-69
2021/07/29 02:09:30;;;;;;;12.00;4.18;;;;;;;25.80;49.89;100421.69;5027444;28;20608;-68
2021/07/29 02:11:59;;;;;;;10.10;3.90;;;;;;;25.85;50.07;100416.91;5009796;28;20446;-69
2021/07/29 02:14:29;;;;;;;9.90;3.92;;;;;;;25.84;50.11;100426.00;5010890;28;20046;-69
2021/07/29 02:16:56;;;;;;;13.43;4.15;;;;;;;25.92;49.67;100431.88;5010416;28;20042;-69
2021/07/29 02:19:24;;;;;;;8.98;4.00;;;;;;;25.93;49.78;100421.94;5010018;28;20483;-69
2021/07/29 02:21:52;;;;;;;12.50;4.47;;;;;;;25.87;50.28;100423.09;5028052;28;20179;-69
2021/07/29 02:24:19;;;;;;;9.55;3.97;;;;;;;25.88;50.31;100427.56;5018293;28;20049;-69
2021/07/29 02:26:47;;;;;;;10.70;3.72;;;;;;;25.80;50.67;100424.38;5009765;28;20042;-69
2021/07/29 02:29:14;;;;;;;10.75;4.38;;;;;;;25.87;50.74;100424.94;5009847;28;20053;-68
2021/07/29 02:31:43;;;;;;;12.80;4.00;;;;;;;25.86;50.96;100429.50;5017507;28;20041;-68
2021/07/29 02:34:10;;;;;;;10.20;4.00;;;;;;;25.74;51.22;100427.41;5026741;28;20057;-68
2021/07/29 02:36:38;;;;;;;12.32;5.00;;;;;;;25.69;51.59;100422.25;5010441;28;20042;-69
2021/07/29 02:39:05;;;;;;;17.23;5.20;;;;;;;25.70;51.67;100424.00;5020930;28;20045;-69
2021/07/29 02:41:34;;;;;;;16.13;4.43;;;;;;;25.76;52.14;100431.78;5025869;28;20045;-69
2021/07/29 02:44:01;;;;;;;12.88;4.50;;;;;;;25.65;51.63;100428.78;5018762;28;20049;-69
2021/07/29 02:46:29;;;;;;;15.98;4.20;;;;;;;25.66;52.28;100435.06;5009872;28;20045;-69
2021/07/29 02:48:58;;;;;;;13.10;4.78;;;;;;;25.78;52.47;100435.31;5009219;28;20054;-69
2021/07/29 02:51:26;;;;;;;12.77;4.47;;;;;;;25.77;52.21;100432.66;5010643;28;20049;-69
2021/07/29 02:53:53;;;;;;;11.27;3.53;;;;;;;25.75;52.59;100438.16;5013546;28;20451;-69
2021/07/29 02:56:20;;;;;;;9.57;3.90;;;;;;;25.78;52.63;100443.41;5015872;28;20049;-69
2021/07/29 02:58:48;;;;;;;12.75;3.72;;;;;;;25.82;52.28;100446.81;5009301;28;20042;-69
2021/07/29 03:01:16;;;;;;;12.02;4.20;;;;;;;25.79;52.33;100445.19;5023405;28;20091;-69
2021/07/29 03:03:44;;;;;;;12.40;4.50;;;;;;;25.84;52.67;100450.34;5023044;28;20046;-68
2021/07/29 03:06:13;;;;;;;17.50;4.30;;;;;;;25.85;52.74;100449.38;5016630;28;20037;-68
2021/07/29 03:08:40;;;;;;;11.35;4.13;;;;;;;25.80;52.46;100455.00;5008814;28;20049;-67
2021/07/29 03:11:11;;;;;;;12.60;4.30;;;;;;;25.73;52.54;100452.72;5010623;28;20052;-68
2021/07/29 03:13:38;;;;;;;13.15;4.70;;;;;;;25.71;53.09;100463.63;5010620;28;20038;-68
2021/07/29 03:16:06;;;;;;;11.15;4.40;;;;;;;25.69;53.02;100465.53;5008757;28;20041;-68
2021/07/29 03:18:33;;;;;;;18.25;5.25;;;;;;;25.71;53.87;100462.75;5017064;28;20045;-68
2021/07/29 03:21:00;;;;;;;12.35;4.28;;;;;;;25.72;54.37;100464.50;5017889;28;20049;-68
2021/07/29 03:23:29;;;;;;;13.70;4.13;;;;;;;25.76;54.42;100466.97;5013007;28;20049;-69
2021/07/29 03:25:56;;;;;;;14.70;4.57;;;;;;;25.73;54.06;100466.25;5011358;28;20064;-69
2021/07/29 03:28:24;;;;;;;13.38;4.35;;;;;;;25.73;53.85;100466.25;5022581;28;20046;-68
2021/07/29 03:30:52;;;;;;;9.93;3.95;;;;;;;25.72;54.17;100459.97;5025977;28;20037;-69
2021/07/29 03:33:19;;;;;;;14.65;5.10;;;;;;;25.71;54.12;100463.63;5021231;28;20045;-69
2021/07/29 03:35:47;;;;;;;12.38;4.90;;;;;;;25.70;53.92;100459.16;5008959;28;20515;-69
2021/07/29 03:38:14;;;;;;;15.90;4.60;;;;;;;25.74;54.20;100460.75;5009998;28;20407;-69
2021/07/29 03:40:44;;;;;;;15.70;4.15;;;;;;;25.86;53.93;100466.50;5014999;28;20044;-68
2021/07/29 03:43:11;;;;;;;12.60;4.78;;;;;;;25.94;54.18;100466.94;5013455;28;20039;-68
2021/07/29 03:45:43;;;;;;;13.70;4.47;;;;;;;26.04;54.08;100465.50;5009319;28;20046;-69
2021/07/29 03:48:10;;;;;;;17.55;4.20;;;;;;;26.11;53.72;100462.41;5009939;28;20034;-67
2021/07/29 03:50:39;;;;;;;13.60;4.53;;;;;;;26.14;53.94;100462.22;5009739;28;20042;-69
2021/07/29 03:53:06;;;;;;;13.30;4.30;;;;;;;26.20;53.64;100466.44;5010103;28;20511;-68
2021/07/29 03:55:34;;;;;;;11.85;3.95;;;;;;;26.25;53.65;100464.41;5008679;28;20038;-68
2021/07/29 03:58:03;;;;;;;13.52;4.32;;;;;;;26.31;54.34;100466.78;5010532;28;20047;-69
2021/07/29 04:00:30;;;;;;;10.25;4.22;;;;;;;26.46;53.98;100462.34;5022342;28;20474;-69
2021/07/29 04:02:59;;;;;;;13.93;4.63;;;;;;;26.61;53.31;100468.75;5013596;28;20049;-68
2021/07/29 04:05:26;;;;;;;11.02;4.10;;;;;;;26.76;53.20;100465.19;5008476;28;20121;-68
2021/07/29 04:07:54;;;;;;;9.68;3.90;;;;;;;26.90;52.99;100474.34;5011994;28;20045;-68
2021/07/29 04:10:21;;;;;;;19.15;4.60;;;;;;;27.03;53.21;100477.22;5023977;28;20045;-69
2021/07/29 04:12:48;;;;;;;15.15;3.95;;;;;;;27.15;53.20;100489.19;5008109;28;20398;-68
2021/07/29 04:15:17;;;;;;;14.55;3.58;;;;;;;27.28;52.33;100476.69;5010096;28;20062;-69
2021/07/29 04:17:45;;;;;;;14.13;4.18;;;;;;;27.43;52.79;100478.50;5026463;28;20037;-68
2021/07/29 04:20:12;;;;;;;9.43;3.50;;;;;;;27.58;52.31;100480.34;5028986;28;20048;-69
2021/07/29 04:22:39;;;;;;;10.68;3.72;;;;;;;27.75;52.61;100479.34;5012969;28;20045;-68
2021/07/29 04:25:07;;;;;;;12.82;4.40;;;;;;;27.91;52.08;100481.97;5026549;28;20406;-69
2021/07/29 04:27:34;;;;;;;17.02;4.53;;;;;;;28.09;51.64;100492.59;5021196;28;20113;-69
2021/07/29 04:30:02;;;;;;;8.98;3.83;;;;;;;28.28;51.42;100492.41;5013997;28;20050;-68
2021/07/29 04:32:35;;;;;;;15.13;4.18;;;;;;;28.48;51.56;100492.03;5013086;28;20396;-69
2021/07/29 04:35:03;;;;;;;13.60;3.20;;;;;;;28.65;50.85;100484.63;5012251;28;20121;-69
2021/07/29 04:37:31;;;;;;;13.50;3.40;;;;;;;28.79;50.52;100490.09;5024762;28;20081;-69
2021/07/29 04:39:58;;;;;;;12.38;4.03;;;;;;;28.93;50.64;100496.41;5011764;28;20049;-69
2021/07/29 04:42:25;;;;;;;11.40;3.60;;;;;;;29.13;50.01;100500.53;5027797;28;20041;-69
2021/07/29 04:44:52;;;;;;;13.85;3.20;;;;;;;29.29;49.44;100503.97;5031287;28;20044;-70
2021/07/29 04:47:20;;;;;;;12.50;3.47;;;;;;;29.50;48.78;100509.00;5030891;28;20718;-69
2021/07/29 04:49:48;;;;;;;12.80;3.47;;;;;;;29.73;48.39;100508.34;5031740;28;20037;-69
2021/07/29 04:52:16;;;;;;;14.05;3.22;;;;;;;29.93;48.01;100505.13;5030294;28;20046;-69
2021/07/29 04:54:43;;;;;;;10.75;3.45;;;;;;;30.17;47.58;100512.59;5031238;28;20045;-68
2021/07/29 04:57:10;;;;;;;11.85;3.00;;;;;;;30.44;46.70;100518.81;5015659;28;20049;-69
2021/07/29 04:59:40;;;;;;;10.85;3.20;;;;;;;30.66;45.86;100512.72;5013110;28;20496;-69
2021/07/29 05:02:08;;;;;;;10.55;2.78;;;;;;;30.82;45.48;100508.81;5025239;28;20100;-69
2021/07/29 05:04:35;;;;;;;18.77;3.70;;;;;;;31.03;44.72;100513.69;5012724;28;20522;-69
2021/07/29 05:07:05;;;;;;;10.70;3.60;;;;;;;31.27;44.24;100523.69;5011559;28;20499;-69
2021/07/29 05:09:33;;;;;;;12.43;3.65;;;;;;;31.42;43.35;100510.75;5011189;28;20151;-69
2021/07/29 05:12:01;;;;;;;12.23;3.28;;;;;;;31.47;43.21;100516.72;5011240;28;20045;-69
2021/07/29 05:14:28;;;;;;;10.43;3.03;;;;;;;31.77;42.92;100520.91;5011127;28;20053;-69
2021/07/29 05:17:00;;;;;;;8.43;2.80;;;;;;;32.17;41.86;100508.63;5022141;28;20384;-69
2021/07/29 05:19:28;;;;;;;11.10;2.90;;;;;;;32.33;41.39;100517.38;5030878;28;20037;-69
2021/07/29 05:21:55;;;;;;;8.95;2.88;;;;;;;32.52;40.80;100518.66;5020515;28;20042;-69
2021/07/29 05:24:25;;;;;;;9.52;2.90;;;;;;;32.67;40.19;100514.72;5028436;28;20387;-69
2021/07/29 05:26:53;;;;;;;11.38;3.05;;;;;;;32.79;39.76;100511.00;5029112;28;20034;-69
2021/07/29 05:29:21;;;;;;;14.50;3.47;;;;;;;32.96;39.37;100505.00;5022783;28;20518;-69
2021/07/29 05:31:48;;;;;;;8.30;3.38;;;;;;;33.19;38.96;100501.31;5029108;28;20112;-69
2021/07/29 05:34:15;;;;;;;9.82;3.40;;;;;;;33.42;38.01;100502.09;5026440;28;20041;-69
2021/07/29 05:36:43;;;;;;;7.65;3.10;;;;;;;33.58;37.27;100499.81;5030491;28;20144;-68
2021/07/29 05:39:10;;;;;;;15.38;3.20;;;;;;;33.75;36.91;100500.28;5031167;28;20049;-69
2021/07/29 05:41:39;;;;;;;15.40;3.50;;;;;;;34.01;36.73;100494.31;5030312;28;20052;-68
2021/07/29 05:44:06;;;;;;;12.82;3.00;;;;;;;34.17;35.97;100485.63;5029918;28;20041;-69
2021/07/29 05:46:33;;;;;;;14.70;3.28;;;;;;;34.32;35.26;100495.28;5022927;28;20060;-68
2021/07/29 05:49:01;;;;;;;9.70;3.28;;;;;;;34.56;34.77;100494.13;5025601;28;20060;-68
2021/07/29 05:51:29;;;;;;;8.43;3.00;;;;;;;34.60;34.46;100498.31;5024052;28;20258;-68
2021/07/29 05:53:56;;;;;;;14.07;3.90;;;;;;;34.57;34.35;100504.09;5011862;28;20060;-68
2021/07/29 05:56:24;;;;;;;11.57;2.55;;;;;;;34.66;34.23;100489.53;5027220;28;20446;-69
2021/07/29 05:58:53;;;;;;;9.65;3.40;;;;;;;34.64;33.90;100494.31;5019202;28;20529;-68
2021/07/29 06:01:22;;;;;;;14.82;3.80;;;;;;;34.96;33.86;100492.31;5023871;28;20061;-68
2021/07/29 06:03:49;;;;;;;11.85;3.05;;;;;;;35.32;33.60;100499.06;5026249;28;20050;-68
2021/07/29 06:06:17;;;;;;;8.70;3.72;;;;;;;35.50;33.47;100496.53;5028649;28;20053;-67
2021/07/29 06:08:47;;;;;;;10.43;3.47;;;;;;;35.61;33.86;100501.00;5025952;28;20128;-68
2021/07/29 06:11:14;;;;;;;10.60;3.17;;;;;;;35.76;33.82;100497.72;5026107;28;20510;-69
2021/07/29 06:13:42;;;;;;;14.32;3.22;;;;;;;35.59;34.29;100495.66;5023258;28;20952;-68
2021/07/29 06:16:10;;;;;;;10.57;3.10;;;;;;;35.79;34.55;100502.94;5022971;28;20053;-70
2021/07/29 06:18:47;;;;;;;11.82;3.17;;;;;;;35.92;34.46;100509.00;5028174;28;20044;-70
2021/07/29 06:21:14;;;;;;;13.32;3.58;;;;;;;36.01;34.29;100501.78;5029179;28;20044;-69
2021/07/29 06:23:42;;;;;;;13.63;4.65;;;;;;;36.18;34.36;100501.06;5020468;28;20041;-69
2021/07/29 06:26:10;;;;;;;11.70;3.50;;;;;;;36.40;34.17;100508.13;5017692;28;20041;-69
2021/07/29 06:28:39;;;;;;;10.50;3.53;;;;;;;36.37;33.77;100507.53;5019122;28;20049;-68
2021/07/29 06:31:08;;;;;;;12.30;3.75;;;;;;;36.40;33.69;100507.25;5025037;28;20380;-69
2021/07/29 06:33:37;;;;;;;10.75;3.10;;;;;;;36.52;33.46;100508.78;5025417;28;20038;-69
2021/07/29 06:36:04;;;;;;;12.45;3.78;;;;;;;36.43;33.40;100502.28;5025402;28;20046;-70
2021/07/29 06:38:32;;;;;;;12.27;3.92;;;;;;;36.49;33.21;100504.47;5024015;28;20054;-68
2021/07/29 06:41:00;;;;;;;12.38;3.50;;;;;;;36.54;33.11;100501.28;5025681;28;20060;-69
2021/07/29 06:43:27;;;;;;;12.48;3.50;;;;;;;36.70;33.08;100501.53;5024008;28;20442;-71
2021/07/29 06:45:54;;;;;;;11.77;3.35;;;;;;;36.71;33.01;100501.38;5018584;28;20041;-69
2021/07/29 06:48:22;;;;;;;14.35;3.72;;;;;;;36.76;32.31;100494.56;5028132;28;20042;-69
2021/07/29 06:50:52;;;;;;;9.52;3.40;;;;;;;36.71;32.27;100500.50;5026890;28;20402;-69
2021/07/29 06:53:20;;;;;;;13.00;3.90;;;;;;;36.73;32.34;100495.72;5027986;28;20056;-68
2021/07/29 06:55:48;;;;;;;8.93;2.92;;;;;;;36.75;32.11;100507.47;5021681;28;20041;-69
2021/07/29 06:58:15;;;;;;;9.75;3.28;;;;;;;36.70;31.92;100490.50;5012356;28;20038;-69
2021/07/29 07:00:43;;;;;;;12.60;3.88;;;;;;;36.67;31.78;100493.59;5027762;28;20037;-70
2021/07/29 07:03:10;;;;;;;8.50;3.10;;;;;;;36.81;31.68;100495.84;5027007;28;20046;-69
2021/07/29 07:05:44;;;;;;;10.65;3.42;;;;;;;37.05;31.50;100495.28;5020999;28;20629;-70
2021/07/29 07:08:13;;;;;;;9.93;3.55;;;;;;;37.06;31.29;100492.41;5026195;28;20029;-69
2021/07/29 07:10:41;;;;;;;10.52;3.20;;;;;;;36.91;31.06;100491.16;5028507;28;20038;-69
2021/07/29 07:13:09;;;;;;;8.02;3.28;;;;;;;36.88;31.45;100488.72;5028587;28;20048;-70
2021/07/29 07:15:36;;;;;;;11.32;3.72;;;;;;;37.04;31.35;100490.81;5024222;28;20034;-70
2021/07/29 07:18:04;;;;;;;12.38;4.03;;;;;;;37.06;30.91;100488.78;5014805;28;20044;-70
2021/07/29 07:20:31;;;;;;;12.68;3.67;;;;;;;36.98;30.76;100489.53;5009229;28;20407;-70
2021/07/29 07:22:58;;;;;;;14.82;3.42;;;;;;;36.95;30.44;100489.84;5021327;28;20049;-70
2021/07/29 07:25:27;;;;;;;10.25;3.40;;;;;;;37.04;30.34;100491.66;5029054;28;20120;-70
2021/07/29 07:27:54;;;;;;;9.48;3.05;;;;;;;37.09;30.62;100492.06;5026615;28;20465;-70
2021/07/29 07:30:22;;;;;;;9.65;3.67;;;;;;;37.30;30.60;100475.31;5028999;28;20414;-70
2021/07/29 07:32:50;;;;;;;10.77;3.28;;;;;;;37.38;30.42;100488.31;5028264;28;20395;-70
2021/07/29 07:35:17;;;;;;;12.55;3.33;;;;;;;37.40;30.49;100502.81;5025805;28;20046;-70
2021/07/29 07:37:45;;;;;;;12.65;3.05;;;;;;;37.43;30.43;100492.34;5024797;28;20061;-69
2021/07/29 07:40:13;;;;;;;14.00;3.53;;;;;;;37.31;30.30;100495.47;5029042;28;20380;-70
2021/07/29 07:42:43;;;;;;;11.25;3.58;;;;;;;37.18;30.49;100495.84;5026540;28;20398;-70
2021/07/29 07:45:11;;;;;;;13.82;3.60;;;;;;;37.11;30.75;100484.56;5027585;28;20042;-70
2021/07/29 07:47:39;;;;;;;10.15;3.53;;;;;;;37.16;30.82;100495.09;5027175;28;20034;-69
2021/07/29 07:50:07;;;;;;;11.20;3.20;;;;;;;37.30;31.05;100493.72;5030115;28;20509;-70
2021/07/29 07:52:35;;;;;;;11.98;2.97;;;;;;;37.23;31.06;100493.47;5031368;28;20041;-69
2021/07/29 07:55:02;;;;;;;11.32;2.78;;;;;;;36.92;31.62;100478.25;5031851;28;20034;-68
2021/07/29 07:57:29;;;;;;;11.25;3.60;;;;;;;36.98;31.93;100486.78;5032179;28;20048;-69
2021/07/29 07:59:59;;;;;;;9.77;3.40;;;;;;;37.04;32.17;100479.78;5031252;28;20414;-70
2021/07/29 08:02:27;;;;;;;10.75;3.58;;;;;;;36.83;32.65;100482.78;5031455;28;20057;-69
2021/07/29 08:04:54;;;;;;;12.68;3.50;;;;;;;36.80;32.71;100466.59;5024779;28;20056;-69
2021/07/29 08:07:22;;;;;;;9.80;3.38;;;;;;;36.95;32.60;100483.47;5029097;28;20057;-70
2021/07/29 08:09:49;;;;;;;14.57;3.08;;;;;;;37.21;32.25;100486.41;5027840;28;20227;-70
2021/07/29 08:12:17;;;;;;;15.13;3.50;;;;;;;37.36;31.92;100484.84;5032310;28;20060;-69
2021/07/29 08:14:44;;;;;;;11.77;3.30;;;;;;;37.37;31.69;100472.81;5032439;28;20049;-69
2021/07/29 08:17:13;;;;;;;16.17;3.70;;;;;;;37.29;31.35;100484.59;5030574;28;20398;-69
2021/07/29 08:19:40;;;;;;;7.70;3.10;;;;;;;37.35;31.19;100494.16;5032000;28;20057;-69
2021/07/29 08:22:07;;;;;;;11.57;3.15;;;;;;;37.27;31.50;100483.03;5031087;28;20057;-70
2021/07/29 08:24:35;;;;;;;15.20;3.75;;;;;;;37.17;31.89;100482.22;5029256;28;20403;-69
2021/07/29 08:27:02;;;;;;;8.75;2.80;;;;;;;37.15;31.90;100481.53;5028352;28;20041;-69
2021/07/29 08:29:31;;;;;;;11.43;3.33;;;;;;;37.05;31.87;100476.88;5028027;28;20073;-69
2021/07/29 08:31:58;;;;;;;13.10;3.38;;;;;;;36.95;32.07;100470.56;5030513;28;20053;-69
2021/07/29 08:34:28;;;;;;;10.95;3.60;;;;;;;36.76;32.15;100478.91;5028725;28;20068;-69
2021/07/29 08:36:55;;;;;;;13.95;3.65;;;;;;;36.67;32.14;100477.94;5029622;28;20052;-69
2021/07/29 08:39:22;;;;;;;12.07;2.85;;;;;;;36.64;32.41;100477.31;5028982;28;20628;-69
2021/07/29 08:41:51;;;;;;;13.95;3.70;;;;;;;36.91;32.38;100479.28;5031143;28;20045;-70
2021/07/29 08:44:18;;;;;;;12.68;3.60;;;;;;;36.97;31.46;100470.41;5031406;28;20525;-68
2021/07/29 08:46:46;;;;;;;11.80;3.40;;;;;;;37.00;31.71;100483.88;5029375;28;20056;-70
2021/07/29 08:49:16;;;;;;;11.00;3.35;;;;;;;37.09;31.33;100470.03;5031110;28;20522;-69
2021/07/29 08:51:48;;;;;;;8.40;3.38;;;;;;;37.04;31.49;100475.16;5031094;28;20540;-69
2021/07/29 08:54:15;;;;;;;11.27;3.75;;;;;;;36.95;32.22;100483.47;5028688;28;20041;-69
2021/07/29 08:56:42;;;;;;;14.45;3.40;;;;;;;37.05;32.35;100482.41;5030495;28;20502;-69
2021/07/29 08:59:12;;;;;;;10.00;3.60;;;;;;;37.37;31.93;100481.06;5031269;28;20052;-69
2021/07/29 09:01:45;;;;;;;14.35;3.65;;;;;;;37.39;31.87;100481.78;5026853;28;20147;-69
2021/07/29 09:04:14;;;;;;;11.07;3.47;;;;;;;37.39;31.97;100485.41;5028865;28;20057;-70
2021/07/29 09:06:59;;;;;;;14.00;3.80;;;;;;;37.29;31.94;100481.84;5028040;28;20053;-69
2021/07/29 09:09:45;;;;;;;12.48;4.40;;;;;;;37.36;31.88;100488.47;5024880;28;20034;-68
2021/07/29 09:12:21;;;;;;;20.92;4.57;;;;;;;37.39;31.49;100479.03;5028210;28;20471;-70
2021/07/29 09:14:49;;;;;;;11.13;3.60;;;;;;;37.44;31.67;100484.94;5030553;28;20041;-69
2021/07/29 09:17:18;;;;;;;12.27;3.55;;;;;;;37.42;31.40;100479.56;5026710;28;20065;-70
2021/07/29 09:19:47;;;;;;;10.18;3.28;;;;;;;37.33;31.29;100490.69;5028875;28;20049;-70
2021/07/29 09:22:18;;;;;;;11.02;3.63;;;;;;;37.34;30.91;100479.50;5029810;28;20037;-68
2021/07/29 09:25:11;;;;;;;14.60;3.67;;;;;;;37.40;30.28;100481.63;5028844;28;20041;-69
2021/07/29 09:27:44;;;;;;;13.82;4.72;;;;;;;37.19;30.43;100482.94;5001099;28;20125;-70
2021/07/29 09:30:17;;;;;;;12.10;3.40;;;;;;;37.14;30.91;100488.91;5011651;28;20049;-70
2021/07/29 09:33:11;;;;;;;12.23;3.30;;;;;;;37.27;30.48;100485.78;5012108;28;20533;-68
2021/07/29 09:35:40;;;;;;;;;;;;;;;37.21;30.58;100480.91;5028267;28;20049;-69
2021/07/29 09:38:11;;;;;;;15.55;3.58;;;;;;;37.16;30.86;100489.59;5027733;28;20404;-69
2021/07/29 09:40:43;;;;;;;11.40;3.70;;;;;;;37.10;31.08;100479.16;5029929;28;20033;-70
2021/07/29 09:43:13;;;;;;;13.30;4.45;;;;;;;37.08;30.89;100503.25;5017738;28;20038;-70
2021/07/29 09:45:41;;;;;;;7.10;3.15;;;;;;;37.03;30.63;100489.06;5012888;28;20446;-70
2021/07/29 09:48:09;;;;;;;12.43;3.92;;;;;;;37.06;30.37;100489.63;5021245;28;20057;-69
2021/07/29 09:50:39;;;;;;;15.13;3.40;;;;;;;37.39;29.89;100501.94;5020047;28;20305;-69
2021/07/29 09:53:08;;;;;;;12.15;3.90;;;;;;;37.43;30.03;100492.34;5023651;28;20076;-70
2021/07/29 09:55:36;;;;;;;12.05;3.50;;;;;;;37.35;29.95;100503.25;5024080;28;20061;-69
2021/07/29 09:58:04;;;;;;;10.70;3.30;;;;;;;37.41;30.08;100493.53;5028778;28;20099;-70
2021/07/29 10:00:35;;;;;;;14.73;3.90;;;;;;;37.26;30.20;100492.31;5026661;28;20049;-69
2021/07/29 10:03:06;;;;;;;10.70;3.33;;;;;;;37.07;30.42;100488.63;5021106;28;20528;-69
2021/07/29 10:05:41;;;;;;;10.50;3.15;;;;;;;37.07;30.04;100483.13;5025357;28;20095;-69
2021/07/29 10:08:18;;;;;;;12.27;3.67;;;;;;;36.97;29.98;100473.16;5027698;28;20046;-68
2021/07/29 10:10:45;;;;;;;14.45;3.90;;;;;;;37.01;30.12;100480.97;5024951;28;20111;-69
2021/07/29 10:13:13;;;;;;;13.43;4.07;;;;;;;36.98;29.90;100472.13;5024201;28;20048;-70
2021/07/29 10:15:44;;;;;;;11.95;3.08;;;;;;;36.97;29.54;100481.41;5024869;28;20505;-70
2021/07/29 10:18:13;;;;;;;14.15;3.85;;;;;;;36.84;29.69;100478.16;5026629;28;20045;-69
2021/07/29 10:20:41;;;;;;;12.65;3.33;;;;;;;36.85;29.41;100472.50;5020164;28;20041;-70
2021/07/29 10:23:28;;;;;;;12.02;3.85;;;;;;;36.84;28.72;100473.50;5017400;28;20045;-69
2021/07/29 10:26:10;;;;;;;17.00;3.45;;;;;;;36.76;28.95;100467.88;5018198;28;20045;-70
2021/07/29 10:28:42;;;;;;;13.02;3.30;;;;;;;36.80;28.95;100472.09;5025544;28;20033;-68
2021/07/29 10:31:11;;;;;;;13.00;3.50;;;;;;;36.92;28.83;100470.88;5021401;28;20049;-70
2021/07/29 10:33:40;;;;;;;14.07;3.92;;;;;;;36.86;28.99;100465.09;5021864;28;20065;-70
2021/07/29 10:36:08;;;;;;;16.38;3.85;;;;;;;36.84;28.92;100472.63;5022846;28;20041;-70
2021/07/29 10:39:06;;;;;;;11.43;3.70;;;;;;;36.80;29.06;100466.59;5026395;28;20045;-70
2021/07/29 10:41:56;;;;;;;10.90;3.85;;;;;;;36.92;29.22;100470.88;5020923;28;20454;-70
2021/07/29 10:44:49;;;;;;;12.88;3.70;;;;;;;36.85;28.91;100464.25;5025438;28;20073;-69
2021/07/29 10:47:35;;;;;;;8.10;3.83;;;;;;;36.85;29.24;100469.75;5027410;28;20071;-69
2021/07/29 10:50:16;;;;;;;9.80;3.35;;;;;;;36.95;28.89;100462.31;5028736;28;20092;-70
2021/07/29 10:52:47;;;;;;;13.15;4.20;;;;;;;37.03;28.92;100465.16;5021170;28;20390;-70
2021/07/29 10:55:17;;;;;;;12.88;3.85;;;;;;;37.19;29.07;100469.16;5019480;28;20111;-66
2021/07/29 10:58:10;;;;;;;11.20;3.92;;;;;;;37.22;28.79;100463.34;5019408;28;20045;-65
2021/07/29 11:00:39;;;;;;;11.82;3.70;;;;;;;37.34;28.71;100464.88;5023057;28;20108;-68
2021/07/29 11:03:22;;;;;;;10.75;3.55;;;;;;;37.54;28.52;100471.09;5026040;28;20037;-68
2021/07/29 11:06:02;;;;;;;14.95;3.92;;;;;;;37.65;28.20;100471.75;5025387;28;20521;-69
2021/07/29 11:08:30;;;;;;;12.23;3.67;;;;;;;37.78;28.11;100475.00;5022142;28;20666;-67
2021/07/29 11:11:03;;;;;;;13.20;3.95;;;;;;;37.77;28.32;100464.97;5022849;28;20403;-68
2021/07/29 11:13:31;;;;;;;13.57;3.72;;;;;;;37.84;27.79;100463.31;5024409;28;20499;-68
2021/07/29 11:16:02;;;;;;;13.48;4.03;;;;;;;38.09;27.57;100466.31;5025096;28;20054;-69
2021/07/29 11:18:30;;;;;;;9.13;3.50;;;;;;;38.17;27.21;100474.66;5024217;28;20049;-69
2021/07/29 11:20:57;;;;;;;8.30;3.47;;;;;;;38.15;27.11;100472.03;5023666;28;20453;-69
2021/07/29 11:23:42;;;;;;;14.25;3.55;;;;;;;38.12;27.09;100463.25;5025640;28;20041;-68
2021/07/29 11:26:11;;;;;;;10.98;3.50;;;;;;;38.12;27.22;100463.25;5022998;28;20046;-69
2021/07/29 11:28:38;;;;;;;14.32;4.10;;;;;;;38.12;27.22;100460.47;5019247;28;20041;-68
2021/07/29 11:31:07;;;;;;;15.00;3.45;;;;;;;38.31;27.20;100463.03;5023429;28;20052;-70